sensor_id;sensor_type;location;lat;lon;timestamp;P1;durP1;ratioP1;P2;durP2;ratioP2
41456;SDS011;27197;51.752;5.220;2022-09-09T00:00:37;2.20;;;0.95;;
41456;SDS011;27197;51.752;5.220;2022-09-09T00:03:14;2.42;;;0.88;;
41456;SDS011;27197;51.752;5.220;2022-09-09T00:08:36;1.22;;;0.70;;
41456;SDS011;27197;51.752;5.220;2022-09-09T00:11:04;1.37;;;0.42;;
41456;SDS011;27197;51.752;5.220;2022-09-09T00:13:46;1.27;;;0.57;;
41456;SDS011;27197;51.752;5.220;2022-09-09T00:16:32;1.32;;;0.60;;
41456;SDS011;27197;51.752;5.220;2022-09-09T00:19:15;1.02;;;0.53;;
41456;SDS011;27197;51.752;5.220;2022-09-09T00:21:47;1.00;;;0.55;;
41456;SDS011;27197;51.752;5.220;2022-09-09T00:24:27;2.40;;;0.80;;
41456;SDS011;27197;51.752;5.220;2022-09-09T00:27:11;0.93;;;0.60;;
41456;SDS011;27197;51.752;5.220;2022-09-09T00:29:51;1.45;;;0.60;;
41456;SDS011;27197;51.752;5.220;2022-09-09T00:32:24;3.42;;;1.07;;
41456;SDS011;27197;51.752;5.220;2022-09-09T00:35:02;2.25;;;0.60;;
41456;SDS011;27197;51.752;5.220;2022-09-09T00:37:35;1.25;;;0.55;;
41456;SDS011;27197;51.752;5.220;2022-09-09T00:40:18;2.85;;;0.50;;
41456;SDS011;27197;51.752;5.220;2022-09-09T00:43:25;3.08;;;0.68;;
41456;SDS011;27197;51.752;5.220;2022-09-09T00:45:52;1.17;;;0.50;;
41456;SDS011;27197;51.752;5.220;2022-09-09T00:48:51;2.60;;;0.60;;
41456;SDS011;27197;51.752;5.220;2022-09-09T01:05:14;1.95;;;0.62;;
41456;SDS011;27197;51.752;5.220;2022-09-09T01:07:47;2.05;;;0.50;;
41456;SDS011;27197;51.752;5.220;2022-09-09T01:10:55;1.25;;;0.70;;
41456;SDS011;27197;51.752;5.220;2022-09-09T01:13:08;2.08;;;0.70;;
41456;SDS011;27197;51.752;5.220;2022-09-09T01:15:39;1.82;;;0.60;;
41456;SDS011;27197;51.752;5.220;2022-09-09T01:18:13;0.98;;;0.60;;
41456;SDS011;27197;51.752;5.220;2022-09-09T01:21:02;2.98;;;1.10;;
41456;SDS011;27197;51.752;5.220;2022-09-09T01:26:52;2.33;;;0.90;;
41456;SDS011;27197;51.752;5.220;2022-09-09T01:29:22;1.67;;;0.68;;
41456;SDS011;27197;51.752;5.220;2022-09-09T01:31:57;1.30;;;0.80;;
41456;SDS011;27197;51.752;5.220;2022-09-09T01:34:33;1.85;;;0.42;;
41456;SDS011;27197;51.752;5.220;2022-09-09T01:37:09;2.70;;;0.60;;
41456;SDS011;27197;51.752;5.220;2022-09-09T01:39:40;2.52;;;0.80;;
41456;SDS011;27197;51.752;5.220;2022-09-09T01:42:16;1.22;;;0.60;;
41456;SDS011;27197;51.752;5.220;2022-09-09T01:44:45;1.87;;;1.10;;
41456;SDS011;27197;51.752;5.220;2022-09-09T01:47:16;2.80;;;0.98;;
41456;SDS011;27197;51.752;5.220;2022-09-09T01:49:46;1.80;;;0.72;;
41456;SDS011;27197;51.752;5.220;2022-09-09T01:52:16;1.40;;;0.70;;
41456;SDS011;27197;51.752;5.220;2022-09-09T01:54:47;2.12;;;0.65;;
41456;SDS011;27197;51.752;5.220;2022-09-09T01:57:18;3.55;;;0.68;;
41456;SDS011;27197;51.752;5.220;2022-09-09T02:05:42;2.15;;;1.30;;
41456;SDS011;27197;51.752;5.220;2022-09-09T02:08:24;3.08;;;0.70;;
41456;SDS011;27197;51.752;5.220;2022-09-09T02:11:02;2.37;;;0.85;;
41456;SDS011;27197;51.752;5.220;2022-09-09T02:13:47;1.92;;;0.50;;
41456;SDS011;27197;51.752;5.220;2022-09-09T02:16:22;2.05;;;1.12;;
41456;SDS011;27197;51.752;5.220;2022-09-09T02:21:56;2.60;;;0.85;;
41456;SDS011;27197;51.752;5.220;2022-09-09T02:24:30;1.85;;;0.70;;
41456;SDS011;27197;51.752;5.220;2022-09-09T02:27:03;1.20;;;0.60;;
41456;SDS011;27197;51.752;5.220;2022-09-09T02:29:37;0.98;;;0.55;;
41456;SDS011;27197;51.752;5.220;2022-09-09T02:32:11;1.07;;;0.50;;
41456;SDS011;27197;51.752;5.220;2022-09-09T02:34:44;1.80;;;0.70;;
41456;SDS011;27197;51.752;5.220;2022-09-09T02:37:17;1.20;;;0.60;;
41456;SDS011;27197;51.752;5.220;2022-09-09T02:39:49;1.15;;;0.50;;
41456;SDS011;27197;51.752;5.220;2022-09-09T02:42:22;2.12;;;1.20;;
41456;SDS011;27197;51.752;5.220;2022-09-09T02:44:52;1.60;;;0.80;;
41456;SDS011;27197;51.752;5.220;2022-09-09T02:50:14;2.02;;;0.62;;
41456;SDS011;27197;51.752;5.220;2022-09-09T02:52:54;1.85;;;0.78;;
41456;SDS011;27197;51.752;5.220;2022-09-09T02:58:12;4.35;;;1.45;;
41456;SDS011;27197;51.752;5.220;2022-09-09T03:00:43;2.30;;;1.02;;
41456;SDS011;27197;51.752;5.220;2022-09-09T03:03:16;3.47;;;1.02;;
41456;SDS011;27197;51.752;5.220;2022-09-09T03:05:47;3.60;;;0.78;;
41456;SDS011;27197;51.752;5.220;2022-09-09T03:08:19;1.75;;;0.60;;
41456;SDS011;27197;51.752;5.220;2022-09-09T03:10:49;2.77;;;0.70;;
41456;SDS011;27197;51.752;5.220;2022-09-09T03:13:19;1.70;;;0.57;;
41456;SDS011;27197;51.752;5.220;2022-09-09T03:15:50;1.65;;;0.80;;
41456;SDS011;27197;51.752;5.220;2022-09-09T03:18:20;1.87;;;0.70;;
41456;SDS011;27197;51.752;5.220;2022-09-09T03:20:50;2.00;;;0.93;;
41456;SDS011;27197;51.752;5.220;2022-09-09T03:23:19;1.40;;;0.70;;
41456;SDS011;27197;51.752;5.220;2022-09-09T03:25:50;4.17;;;0.98;;
41456;SDS011;27197;51.752;5.220;2022-09-09T03:28:23;1.72;;;0.70;;
41456;SDS011;27197;51.752;5.220;2022-09-09T03:30:57;1.60;;;0.70;;
41456;SDS011;27197;51.752;5.220;2022-09-09T03:33:30;3.22;;;1.45;;
41456;SDS011;27197;51.752;5.220;2022-09-09T03:36:04;1.75;;;0.75;;
41456;SDS011;27197;51.752;5.220;2022-09-09T03:38:35;1.50;;;0.65;;
41456;SDS011;27197;51.752;5.220;2022-09-09T03:41:05;1.62;;;0.88;;
41456;SDS011;27197;51.752;5.220;2022-09-09T03:43:36;3.55;;;1.00;;
41456;SDS011;27197;51.752;5.220;2022-09-09T03:46:05;1.85;;;0.60;;
41456;SDS011;27197;51.752;5.220;2022-09-09T03:48:35;1.05;;;0.50;;
41456;SDS011;27197;51.752;5.220;2022-09-09T03:51:05;2.02;;;1.00;;
41456;SDS011;27197;51.752;5.220;2022-09-09T03:53:35;2.55;;;0.60;;
41456;SDS011;27197;51.752;5.220;2022-09-09T03:56:05;1.85;;;0.68;;
41456;SDS011;27197;51.752;5.220;2022-09-09T03:58:37;2.30;;;0.90;;
41456;SDS011;27197;51.752;5.220;2022-09-09T04:01:11;3.35;;;1.10;;
41456;SDS011;27197;51.752;5.220;2022-09-09T04:03:43;5.83;;;1.72;;
41456;SDS011;27197;51.752;5.220;2022-09-09T04:06:14;3.08;;;1.12;;
41456;SDS011;27197;51.752;5.220;2022-09-09T04:08:48;2.47;;;0.90;;
41456;SDS011;27197;51.752;5.220;2022-09-09T04:11:18;3.85;;;1.75;;
41456;SDS011;27197;51.752;5.220;2022-09-09T04:13:49;3.85;;;1.15;;
41456;SDS011;27197;51.752;5.220;2022-09-09T04:16:22;4.05;;;0.85;;
41456;SDS011;27197;51.752;5.220;2022-09-09T04:18:51;3.75;;;1.20;;
41456;SDS011;27197;51.752;5.220;2022-09-09T04:21:21;2.45;;;1.45;;
41456;SDS011;27197;51.752;5.220;2022-09-09T04:23:53;1.50;;;0.70;;
41456;SDS011;27197;51.752;5.220;2022-09-09T04:26:23;2.52;;;1.32;;
41456;SDS011;27197;51.752;5.220;2022-09-09T04:28:53;3.80;;;1.55;;
41456;SDS011;27197;51.752;5.220;2022-09-09T04:31:23;3.47;;;1.25;;
41456;SDS011;27197;51.752;5.220;2022-09-09T04:33:54;1.87;;;1.02;;
41456;SDS011;27197;51.752;5.220;2022-09-09T04:36:25;3.05;;;1.35;;
41456;SDS011;27197;51.752;5.220;2022-09-09T04:38:55;4.78;;;2.00;;
41456;SDS011;27197;51.752;5.220;2022-09-09T04:41:25;2.72;;;1.00;;
41456;SDS011;27197;51.752;5.220;2022-09-09T04:43:57;4.37;;;1.22;;
41456;SDS011;27197;51.752;5.220;2022-09-09T04:46:26;1.65;;;0.65;;
41456;SDS011;27197;51.752;5.220;2022-09-09T04:48:56;2.85;;;1.45;;
41456;SDS011;27197;51.752;5.220;2022-09-09T04:51:27;5.25;;;1.72;;
41456;SDS011;27197;51.752;5.220;2022-09-09T04:53:57;5.40;;;2.00;;
41456;SDS011;27197;51.752;5.220;2022-09-09T04:56:29;4.33;;;1.80;;
41456;SDS011;27197;51.752;5.220;2022-09-09T04:58:58;2.35;;;0.93;;
41456;SDS011;27197;51.752;5.220;2022-09-09T05:01:28;3.75;;;1.52;;
41456;SDS011;27197;51.752;5.220;2022-09-09T05:03:58;2.15;;;0.90;;
41456;SDS011;27197;51.752;5.220;2022-09-09T05:06:27;3.67;;;1.10;;
41456;SDS011;27197;51.752;5.220;2022-09-09T05:08:58;1.90;;;0.90;;
41456;SDS011;27197;51.752;5.220;2022-09-09T05:11:29;5.33;;;1.35;;
41456;SDS011;27197;51.752;5.220;2022-09-09T05:14:04;5.05;;;2.00;;
41456;SDS011;27197;51.752;5.220;2022-09-09T05:16:34;2.92;;;0.95;;
41456;SDS011;27197;51.752;5.220;2022-09-09T05:19:08;2.20;;;1.00;;
41456;SDS011;27197;51.752;5.220;2022-09-09T05:21:38;2.60;;;0.80;;
41456;SDS011;27197;51.752;5.220;2022-09-09T05:24:09;4.25;;;1.65;;
41456;SDS011;27197;51.752;5.220;2022-09-09T05:26:39;3.62;;;0.95;;
41456;SDS011;27197;51.752;5.220;2022-09-09T05:29:08;2.25;;;0.80;;
41456;SDS011;27197;51.752;5.220;2022-09-09T05:31:39;3.10;;;1.00;;
41456;SDS011;27197;51.752;5.220;2022-09-09T05:34:09;3.95;;;1.20;;
41456;SDS011;27197;51.752;5.220;2022-09-09T05:36:39;1.65;;;0.90;;
41456;SDS011;27197;51.752;5.220;2022-09-09T05:39:09;2.45;;;0.82;;
41456;SDS011;27197;51.752;5.220;2022-09-09T05:41:38;3.55;;;1.40;;
41456;SDS011;27197;51.752;5.220;2022-09-09T05:44:08;6.45;;;1.62;;
41456;SDS011;27197;51.752;5.220;2022-09-09T05:46:39;4.37;;;1.52;;
41456;SDS011;27197;51.752;5.220;2022-09-09T05:49:10;5.67;;;1.30;;
41456;SDS011;27197;51.752;5.220;2022-09-09T05:51:41;5.10;;;1.65;;
41456;SDS011;27197;51.752;5.220;2022-09-09T05:54:12;3.95;;;1.50;;
41456;SDS011;27197;51.752;5.220;2022-09-09T05:56:41;6.75;;;1.87;;
41456;SDS011;27197;51.752;5.220;2022-09-09T05:59:12;4.60;;;1.30;;
41456;SDS011;27197;51.752;5.220;2022-09-09T06:01:41;5.67;;;1.80;;
41456;SDS011;27197;51.752;5.220;2022-09-09T06:04:14;6.25;;;1.80;;
41456;SDS011;27197;51.752;5.220;2022-09-09T06:06:43;4.33;;;1.32;;
41456;SDS011;27197;51.752;5.220;2022-09-09T06:09:14;4.95;;;1.67;;
41456;SDS011;27197;51.752;5.220;2022-09-09T06:11:45;5.78;;;1.60;;
41456;SDS011;27197;51.752;5.220;2022-09-09T06:14:15;6.00;;;1.55;;
41456;SDS011;27197;51.752;5.220;2022-09-09T06:16:46;3.20;;;1.25;;
41456;SDS011;27197;51.752;5.220;2022-09-09T06:19:18;3.00;;;1.50;;
41456;SDS011;27197;51.752;5.220;2022-09-09T06:21:48;5.30;;;1.60;;
41456;SDS011;27197;51.752;5.220;2022-09-09T06:24:18;4.87;;;1.65;;
41456;SDS011;27197;51.752;5.220;2022-09-09T06:26:48;2.02;;;1.00;;
41456;SDS011;27197;51.752;5.220;2022-09-09T06:29:19;5.65;;;1.50;;
41456;SDS011;27197;51.752;5.220;2022-09-09T06:31:49;3.40;;;1.47;;
41456;SDS011;27197;51.752;5.220;2022-09-09T06:34:22;6.33;;;1.52;;
41456;SDS011;27197;51.752;5.220;2022-09-09T06:36:52;4.08;;;1.17;;
41456;SDS011;27197;51.752;5.220;2022-09-09T06:39:23;2.25;;;1.00;;
41456;SDS011;27197;51.752;5.220;2022-09-09T06:41:53;3.60;;;1.35;;
41456;SDS011;27197;51.752;5.220;2022-09-09T06:44:24;7.70;;;1.65;;
41456;SDS011;27197;51.752;5.220;2022-09-09T06:46:54;6.97;;;1.70;;
41456;SDS011;27197;51.752;5.220;2022-09-09T06:49:25;5.00;;;1.80;;
41456;SDS011;27197;51.752;5.220;2022-09-09T06:51:57;4.87;;;1.30;;
41456;SDS011;27197;51.752;5.220;2022-09-09T06:54:27;5.72;;;1.40;;
41456;SDS011;27197;51.752;5.220;2022-09-09T06:56:56;7.00;;;1.72;;
41456;SDS011;27197;51.752;5.220;2022-09-09T06:59:26;5.87;;;1.52;;
41456;SDS011;27197;51.752;5.220;2022-09-09T07:01:56;4.83;;;1.70;;
41456;SDS011;27197;51.752;5.220;2022-09-09T07:04:29;8.98;;;2.12;;
41456;SDS011;27197;51.752;5.220;2022-09-09T07:06:59;4.55;;;1.45;;
41456;SDS011;27197;51.752;5.220;2022-09-09T07:09:30;5.55;;;1.22;;
41456;SDS011;27197;51.752;5.220;2022-09-09T07:11:59;3.55;;;1.32;;
41456;SDS011;27197;51.752;5.220;2022-09-09T07:14:31;4.47;;;1.30;;
41456;SDS011;27197;51.752;5.220;2022-09-09T07:17:03;6.47;;;1.62;;
41456;SDS011;27197;51.752;5.220;2022-09-09T07:19:33;3.98;;;1.32;;
41456;SDS011;27197;51.752;5.220;2022-09-09T07:22:02;3.12;;;1.35;;
41456;SDS011;27197;51.752;5.220;2022-09-09T07:24:34;4.90;;;1.60;;
41456;SDS011;27197;51.752;5.220;2022-09-09T07:27:05;6.17;;;1.75;;
41456;SDS011;27197;51.752;5.220;2022-09-09T07:29:38;3.87;;;1.52;;
41456;SDS011;27197;51.752;5.220;2022-09-09T07:32:09;6.95;;;1.52;;
41456;SDS011;27197;51.752;5.220;2022-09-09T07:34:40;4.65;;;1.67;;
41456;SDS011;27197;51.752;5.220;2022-09-09T07:37:10;5.22;;;2.12;;
41456;SDS011;27197;51.752;5.220;2022-09-09T07:39:42;3.95;;;1.45;;
41456;SDS011;27197;51.752;5.220;2022-09-09T07:42:13;6.47;;;1.75;;
41456;SDS011;27197;51.752;5.220;2022-09-09T07:44:45;4.60;;;1.60;;
41456;SDS011;27197;51.752;5.220;2022-09-09T07:47:15;5.55;;;1.75;;
41456;SDS011;27197;51.752;5.220;2022-09-09T07:49:46;5.55;;;1.35;;
41456;SDS011;27197;51.752;5.220;2022-09-09T07:52:17;4.53;;;1.72;;
41456;SDS011;27197;51.752;5.220;2022-09-09T07:54:51;5.47;;;1.50;;
41456;SDS011;27197;51.752;5.220;2022-09-09T07:57:22;4.72;;;2.08;;
41456;SDS011;27197;51.752;5.220;2022-09-09T07:59:51;5.20;;;1.57;;
41456;SDS011;27197;51.752;5.220;2022-09-09T08:02:20;6.55;;;1.60;;
41456;SDS011;27197;51.752;5.220;2022-09-09T08:04:53;4.85;;;1.20;;
41456;SDS011;27197;51.752;5.220;2022-09-09T08:07:22;3.90;;;1.27;;
41456;SDS011;27197;51.752;5.220;2022-09-09T08:09:57;3.67;;;1.40;;
41456;SDS011;27197;51.752;5.220;2022-09-09T08:12:26;6.95;;;1.60;;
41456;SDS011;27197;51.752;5.220;2022-09-09T08:14:58;7.10;;;1.70;;
41456;SDS011;27197;51.752;5.220;2022-09-09T08:17:28;4.90;;;1.17;;
41456;SDS011;27197;51.752;5.220;2022-09-09T08:20:00;4.15;;;1.40;;
41456;SDS011;27197;51.752;5.220;2022-09-09T08:22:30;5.10;;;1.00;;
41456;SDS011;27197;51.752;5.220;2022-09-09T08:24:59;10.30;;;2.02;;
41456;SDS011;27197;51.752;5.220;2022-09-09T08:27:30;3.40;;;1.20;;
41456;SDS011;27197;51.752;5.220;2022-09-09T08:29:59;3.50;;;1.47;;
41456;SDS011;27197;51.752;5.220;2022-09-09T08:32:28;5.92;;;1.47;;
41456;SDS011;27197;51.752;5.220;2022-09-09T08:34:59;7.70;;;1.52;;
41456;SDS011;27197;51.752;5.220;2022-09-09T08:37:30;6.37;;;1.57;;
41456;SDS011;27197;51.752;5.220;2022-09-09T08:40:02;6.17;;;1.45;;
41456;SDS011;27197;51.752;5.220;2022-09-09T08:42:42;6.00;;;1.17;;
41456;SDS011;27197;51.752;5.220;2022-09-09T08:50:34;4.87;;;1.50;;
41456;SDS011;27197;51.752;5.220;2022-09-09T08:53:11;4.20;;;0.98;;
41456;SDS011;27197;51.752;5.220;2022-09-09T08:55:43;4.67;;;1.52;;
41456;SDS011;27197;51.752;5.220;2022-09-09T08:58:19;4.85;;;1.47;;
41456;SDS011;27197;51.752;5.220;2022-09-09T09:06:40;5.67;;;1.50;;
41456;SDS011;27197;51.752;5.220;2022-09-09T09:09:33;5.03;;;1.20;;
41456;SDS011;27197;51.752;5.220;2022-09-09T09:12:06;6.55;;;1.37;;
41456;SDS011;27197;51.752;5.220;2022-09-09T09:14:35;4.12;;;1.20;;
41456;SDS011;27197;51.752;5.220;2022-09-09T09:17:11;3.83;;;1.40;;
41456;SDS011;27197;51.752;5.220;2022-09-09T09:19:43;4.60;;;1.20;;
41456;SDS011;27197;51.752;5.220;2022-09-09T09:25:09;4.15;;;1.20;;
41456;SDS011;27197;51.752;5.220;2022-09-09T09:27:55;3.40;;;1.00;;
41456;SDS011;27197;51.752;5.220;2022-09-09T09:30:31;6.53;;;1.30;;
41456;SDS011;27197;51.752;5.220;2022-09-09T09:33:24;5.10;;;1.40;;
41456;SDS011;27197;51.752;5.220;2022-09-09T09:36:11;4.97;;;1.52;;
41456;SDS011;27197;51.752;5.220;2022-09-09T09:38:55;4.20;;;1.25;;
41456;SDS011;27197;51.752;5.220;2022-09-09T09:41:30;4.67;;;1.70;;
41456;SDS011;27197;51.752;5.220;2022-09-09T09:44:04;6.95;;;1.45;;
41456;SDS011;27197;51.752;5.220;2022-09-09T09:46:36;6.10;;;1.50;;
41456;SDS011;27197;51.752;5.220;2022-09-09T09:49:08;5.62;;;1.35;;
41456;SDS011;27197;51.752;5.220;2022-09-09T09:51:39;5.50;;;1.27;;
41456;SDS011;27197;51.752;5.220;2022-09-09T09:54:16;3.15;;;1.17;;
41456;SDS011;27197;51.752;5.220;2022-09-09T09:56:56;4.30;;;0.98;;
41456;SDS011;27197;51.752;5.220;2022-09-09T09:59:37;6.35;;;1.50;;
41456;SDS011;27197;51.752;5.220;2022-09-09T10:02:14;3.98;;;1.25;;
41456;SDS011;27197;51.752;5.220;2022-09-09T10:04:48;4.47;;;1.85;;
41456;SDS011;27197;51.752;5.220;2022-09-09T10:07:30;8.03;;;1.98;;
41456;SDS011;27197;51.752;5.220;2022-09-09T10:10:02;4.97;;;1.30;;
41456;SDS011;27197;51.752;5.220;2022-09-09T10:15:36;6.72;;;1.65;;
41456;SDS011;27197;51.752;5.220;2022-09-09T10:18:41;7.72;;;1.70;;
41456;SDS011;27197;51.752;5.220;2022-09-09T10:24:17;3.65;;;1.00;;
41456;SDS011;27197;51.752;5.220;2022-09-09T10:26:54;6.40;;;1.50;;
41456;SDS011;27197;51.752;5.220;2022-09-09T10:32:36;4.33;;;1.50;;
41456;SDS011;27197;51.752;5.220;2022-09-09T10:35:14;3.67;;;1.22;;
41456;SDS011;27197;51.752;5.220;2022-09-09T10:40:49;6.50;;;1.87;;
41456;SDS011;27197;51.752;5.220;2022-09-09T10:46:28;6.60;;;1.42;;
41456;SDS011;27197;51.752;5.220;2022-09-09T10:49:17;3.55;;;1.20;;
41456;SDS011;27197;51.752;5.220;2022-09-09T10:51:50;7.33;;;1.40;;
41456;SDS011;27197;51.752;5.220;2022-09-09T10:54:52;3.62;;;1.20;;
41456;SDS011;27197;51.752;5.220;2022-09-09T10:57:35;6.70;;;1.50;;
41456;SDS011;27197;51.752;5.220;2022-09-09T11:00:23;6.12;;;1.85;;
41456;SDS011;27197;51.752;5.220;2022-09-09T11:02:56;3.55;;;1.40;;
41456;SDS011;27197;51.752;5.220;2022-09-09T11:08:19;4.65;;;1.20;;
41456;SDS011;27197;51.752;5.220;2022-09-09T11:10:59;4.45;;;1.50;;
41456;SDS011;27197;51.752;5.220;2022-09-09T11:16:40;5.55;;;1.45;;
41456;SDS011;27197;51.752;5.220;2022-09-09T11:19:39;6.55;;;1.77;;
41456;SDS011;27197;51.752;5.220;2022-09-09T11:42:22;3.85;;;1.72;;
41456;SDS011;27197;51.752;5.220;2022-09-09T11:44:50;5.05;;;1.45;;
41456;SDS011;27197;51.752;5.220;2022-09-09T11:47:30;3.27;;;1.37;;
41456;SDS011;27197;51.752;5.220;2022-09-09T11:50:09;3.62;;;1.40;;
41456;SDS011;27197;51.752;5.220;2022-09-09T11:52:47;4.15;;;1.30;;
41456;SDS011;27197;51.752;5.220;2022-09-09T11:55:27;2.33;;;1.12;;
41456;SDS011;27197;51.752;5.220;2022-09-09T11:57:59;4.42;;;1.52;;
41456;SDS011;27197;51.752;5.220;2022-09-09T12:00:41;5.37;;;1.62;;
41456;SDS011;27197;51.752;5.220;2022-09-09T12:08:48;4.20;;;1.50;;
41456;SDS011;27197;51.752;5.220;2022-09-09T12:11:25;3.60;;;1.60;;
41456;SDS011;27197;51.752;5.220;2022-09-09T12:14:00;4.05;;;1.40;;
41456;SDS011;27197;51.752;5.220;2022-09-09T12:16:30;5.50;;;1.50;;
41456;SDS011;27197;51.752;5.220;2022-09-09T12:19:12;2.98;;;1.30;;
41456;SDS011;27197;51.752;5.220;2022-09-09T12:21:50;3.47;;;1.20;;
41456;SDS011;27197;51.752;5.220;2022-09-09T12:26:58;2.72;;;1.30;;
41456;SDS011;27197;51.752;5.220;2022-09-09T12:29:36;4.85;;;1.52;;
41456;SDS011;27197;51.752;5.220;2022-09-09T12:32:34;3.47;;;1.52;;
41456;SDS011;27197;51.752;5.220;2022-09-09T12:34:57;5.12;;;2.10;;
41456;SDS011;27197;51.752;5.220;2022-09-09T12:37:43;3.92;;;1.10;;
41456;SDS011;27197;51.752;5.220;2022-09-09T12:42:49;2.90;;;1.15;;
41456;SDS011;27197;51.752;5.220;2022-09-09T12:45:25;3.92;;;1.57;;
41456;SDS011;27197;51.752;5.220;2022-09-09T12:50:35;4.85;;;1.45;;
41456;SDS011;27197;51.752;5.220;2022-09-09T12:53:07;2.85;;;1.15;;
41456;SDS011;27197;51.752;5.220;2022-09-09T12:55:36;4.78;;;1.40;;
41456;SDS011;27197;51.752;5.220;2022-09-09T12:58:11;4.97;;;1.75;;
41456;SDS011;27197;51.752;5.220;2022-09-09T13:00:48;4.83;;;1.65;;
41456;SDS011;27197;51.752;5.220;2022-09-09T13:03:23;2.83;;;1.35;;
41456;SDS011;27197;51.752;5.220;2022-09-09T13:06:10;4.10;;;1.77;;
41456;SDS011;27197;51.752;5.220;2022-09-09T13:08:40;5.67;;;2.12;;
41456;SDS011;27197;51.752;5.220;2022-09-09T13:11:17;2.90;;;1.27;;
41456;SDS011;27197;51.752;5.220;2022-09-09T13:13:52;3.60;;;1.65;;
41456;SDS011;27197;51.752;5.220;2022-09-09T13:16:32;3.40;;;1.30;;
41456;SDS011;27197;51.752;5.220;2022-09-09T13:19:00;4.72;;;1.52;;
41456;SDS011;27197;51.752;5.220;2022-09-09T13:21:37;5.00;;;2.10;;
41456;SDS011;27197;51.752;5.220;2022-09-09T13:24:21;6.05;;;1.75;;
41456;SDS011;27197;51.752;5.220;2022-09-09T13:27:00;4.10;;;1.17;;
41456;SDS011;27197;51.752;5.220;2022-09-09T13:29:35;4.50;;;1.30;;
41456;SDS011;27197;51.752;5.220;2022-09-09T13:32:12;6.03;;;1.40;;
41456;SDS011;27197;51.752;5.220;2022-09-09T13:34:55;3.98;;;1.77;;
41456;SDS011;27197;51.752;5.220;2022-09-09T13:37:31;4.55;;;1.70;;
41456;SDS011;27197;51.752;5.220;2022-09-09T13:40:00;3.20;;;1.45;;
41456;SDS011;27197;51.752;5.220;2022-09-09T13:42:32;3.37;;;1.65;;
41456;SDS011;27197;51.752;5.220;2022-09-09T13:45:03;2.00;;;1.12;;
41456;SDS011;27197;51.752;5.220;2022-09-09T13:47:36;5.47;;;2.10;;
41456;SDS011;27197;51.752;5.220;2022-09-09T13:50:15;4.22;;;1.20;;
41456;SDS011;27197;51.752;5.220;2022-09-09T13:52:55;5.95;;;1.15;;
41456;SDS011;27197;51.752;5.220;2022-09-09T13:55:28;2.30;;;1.10;;
41456;SDS011;27197;51.752;5.220;2022-09-09T13:58:00;4.12;;;1.57;;
41456;SDS011;27197;51.752;5.220;2022-09-09T14:00:32;4.22;;;1.32;;
41456;SDS011;27197;51.752;5.220;2022-09-09T14:03:04;4.12;;;1.55;;
41456;SDS011;27197;51.752;5.220;2022-09-09T14:05:35;6.40;;;1.80;;
41456;SDS011;27197;51.752;5.220;2022-09-09T14:08:07;5.15;;;1.60;;
41456;SDS011;27197;51.752;5.220;2022-09-09T14:10:39;3.02;;;1.17;;
41456;SDS011;27197;51.752;5.220;2022-09-09T14:13:08;4.03;;;1.15;;
41456;SDS011;27197;51.752;5.220;2022-09-09T14:15:40;2.90;;;0.90;;
41456;SDS011;27197;51.752;5.220;2022-09-09T14:18:11;3.58;;;1.30;;
41456;SDS011;27197;51.752;5.220;2022-09-09T14:20:43;1.87;;;0.88;;
41456;SDS011;27197;51.752;5.220;2022-09-09T14:23:13;3.70;;;1.07;;
41456;SDS011;27197;51.752;5.220;2022-09-09T14:25:43;3.52;;;1.30;;
41456;SDS011;27197;51.752;5.220;2022-09-09T14:28:14;2.50;;;1.00;;
41456;SDS011;27197;51.752;5.220;2022-09-09T14:30:49;2.60;;;1.10;;
41456;SDS011;27197;51.752;5.220;2022-09-09T14:33:19;2.50;;;1.02;;
41456;SDS011;27197;51.752;5.220;2022-09-09T14:35:54;3.45;;;0.95;;
41456;SDS011;27197;51.752;5.220;2022-09-09T14:38:21;4.45;;;1.12;;
41456;SDS011;27197;51.752;5.220;2022-09-09T14:40:51;3.30;;;1.10;;
41456;SDS011;27197;51.752;5.220;2022-09-09T14:43:21;2.00;;;0.90;;
41456;SDS011;27197;51.752;5.220;2022-09-09T14:45:54;2.67;;;0.90;;
41456;SDS011;27197;51.752;5.220;2022-09-09T14:48:25;2.65;;;0.98;;
41456;SDS011;27197;51.752;5.220;2022-09-09T14:50:55;1.82;;;0.80;;
41456;SDS011;27197;51.752;5.220;2022-09-09T14:53:26;2.15;;;1.00;;
41456;SDS011;27197;51.752;5.220;2022-09-09T14:56:02;1.75;;;0.90;;
41456;SDS011;27197;51.752;5.220;2022-09-09T14:58:34;2.47;;;0.88;;
41456;SDS011;27197;51.752;5.220;2022-09-09T15:01:07;2.27;;;0.60;;
41456;SDS011;27197;51.752;5.220;2022-09-09T15:03:41;1.80;;;0.70;;
41456;SDS011;27197;51.752;5.220;2022-09-09T15:06:13;3.02;;;0.70;;
41456;SDS011;27197;51.752;5.220;2022-09-09T15:08:46;4.83;;;1.02;;
41456;SDS011;27197;51.752;5.220;2022-09-09T15:11:19;2.27;;;0.90;;
41456;SDS011;27197;51.752;5.220;2022-09-09T15:13:50;2.72;;;0.80;;
41456;SDS011;27197;51.752;5.220;2022-09-09T15:16:23;1.70;;;0.70;;
41456;SDS011;27197;51.752;5.220;2022-09-09T15:18:56;1.82;;;0.65;;
41456;SDS011;27197;51.752;5.220;2022-09-09T15:21:30;3.12;;;0.80;;
41456;SDS011;27197;51.752;5.220;2022-09-09T15:24:02;3.62;;;1.17;;
41456;SDS011;27197;51.752;5.220;2022-09-09T15:26:34;2.30;;;0.80;;
41456;SDS011;27197;51.752;5.220;2022-09-09T15:29:08;2.50;;;0.93;;
41456;SDS011;27197;51.752;5.220;2022-09-09T15:31:39;2.50;;;0.95;;
41456;SDS011;27197;51.752;5.220;2022-09-09T15:34:12;3.27;;;1.12;;
41456;SDS011;27197;51.752;5.220;2022-09-09T15:36:42;1.92;;;0.80;;
41456;SDS011;27197;51.752;5.220;2022-09-09T15:39:17;2.72;;;1.00;;
41456;SDS011;27197;51.752;5.220;2022-09-09T15:41:47;2.50;;;1.05;;
41456;SDS011;27197;51.752;5.220;2022-09-09T15:44:18;3.52;;;1.10;;
41456;SDS011;27197;51.752;5.220;2022-09-09T15:46:52;2.15;;;0.80;;
41456;SDS011;27197;51.752;5.220;2022-09-09T15:49:23;3.15;;;0.98;;
41456;SDS011;27197;51.752;5.220;2022-09-09T15:51:56;2.92;;;1.10;;
41456;SDS011;27197;51.752;5.220;2022-09-09T15:54:31;3.20;;;1.25;;
41456;SDS011;27197;51.752;5.220;2022-09-09T15:57:05;2.67;;;1.10;;
41456;SDS011;27197;51.752;5.220;2022-09-09T15:59:37;2.45;;;1.20;;
41456;SDS011;27197;51.752;5.220;2022-09-09T16:02:09;3.22;;;1.00;;
41456;SDS011;27197;51.752;5.220;2022-09-09T16:04:39;3.05;;;1.07;;
41456;SDS011;27197;51.752;5.220;2022-09-09T16:07:09;3.83;;;1.37;;
41456;SDS011;27197;51.752;5.220;2022-09-09T16:09:39;3.55;;;1.10;;
41456;SDS011;27197;51.752;5.220;2022-09-09T16:12:09;3.47;;;1.10;;
41456;SDS011;27197;51.752;5.220;2022-09-09T16:14:40;2.02;;;1.00;;
41456;SDS011;27197;51.752;5.220;2022-09-09T16:17:10;3.90;;;1.42;;
41456;SDS011;27197;51.752;5.220;2022-09-09T16:19:40;3.10;;;1.07;;
41456;SDS011;27197;51.752;5.220;2022-09-09T16:22:13;2.90;;;1.00;;
41456;SDS011;27197;51.752;5.220;2022-09-09T16:24:43;2.33;;;0.90;;
41456;SDS011;27197;51.752;5.220;2022-09-09T16:27:14;3.15;;;0.98;;
41456;SDS011;27197;51.752;5.220;2022-09-09T16:29:44;3.05;;;1.10;;
41456;SDS011;27197;51.752;5.220;2022-09-09T16:32:14;3.25;;;1.00;;
41456;SDS011;27197;51.752;5.220;2022-09-09T16:34:44;3.15;;;0.72;;
41456;SDS011;27197;51.752;5.220;2022-09-09T16:37:14;2.58;;;1.00;;
41456;SDS011;27197;51.752;5.220;2022-09-09T16:39:44;3.10;;;1.35;;
41456;SDS011;27197;51.752;5.220;2022-09-09T16:42:14;3.22;;;1.00;;
41456;SDS011;27197;51.752;5.220;2022-09-09T16:44:45;2.67;;;1.02;;
41456;SDS011;27197;51.752;5.220;2022-09-09T16:47:15;1.52;;;1.00;;
41456;SDS011;27197;51.752;5.220;2022-09-09T16:49:45;5.55;;;1.30;;
41456;SDS011;27197;51.752;5.220;2022-09-09T16:52:14;2.58;;;1.30;;
41456;SDS011;27197;51.752;5.220;2022-09-09T16:54:44;2.85;;;0.90;;
41456;SDS011;27197;51.752;5.220;2022-09-09T16:57:13;2.55;;;1.10;;
41456;SDS011;27197;51.752;5.220;2022-09-09T16:59:43;2.12;;;0.70;;
41456;SDS011;27197;51.752;5.220;2022-09-09T17:02:13;3.25;;;1.10;;
41456;SDS011;27197;51.752;5.220;2022-09-09T17:04:43;3.83;;;1.20;;
41456;SDS011;27197;51.752;5.220;2022-09-09T17:07:16;2.90;;;0.90;;